Time;durP1;ratioP1;P1;durP2;ratioP2;P2;SDS_P1;SDS_P2;PMS_P1;PMS_P2;Temp;Humidity;BMP_temperature;BMP_pressure;BME280_temperature;BME280_humidity;BME280_pressure;Samples;Min_cycle;Max_cycle;Signal;HPM_P1;HPM_P2
2021/08/09 00:01:13;;;;;;;;;;;;;;;22.39;29.06;98032.25;5043868;28;873;-82
2021/08/09 00:03:39;;;;;;;;;;;;;;;22.55;28.89;98026.50;5043154;28;1981;-83
2021/08/09 00:06:04;;;;;;;;;;;;;;;22.46;28.96;98028.41;5011444;28;912;-82
2021/08/09 00:08:30;;;;;;;;;;;;;;;22.35;29.03;98029.53;5026387;28;875;-82
2021/08/09 00:10:55;;;;;;;;;;;;;;;22.34;29.05;98039.28;5043881;28;674;-83
2021/08/09 00:13:20;;;;;;;;;;;;;;;22.41;29.04;98037.47;5042241;28;1130;-83
2021/08/09 00:15:46;;;;;;;;;;;;;;;22.46;29.07;98042.59;5042739;28;910;-82
2021/08/09 00:18:11;;;;;;;;;;;;;;;22.41;28.87;98037.47;5043219;28;1135;-83
2021/08/09 00:20:37;;;;;;;;;;;;;;;22.38;28.84;98041.19;5042512;28;920;-82
2021/08/09 00:23:02;;;;;;;;;;;;;;;22.43;28.78;98046.31;5043816;28;1906;-82
2021/08/09 00:25:28;;;;;;;;;;;;;;;22.43;29.05;98046.31;5043673;28;670;-82
2021/08/09 00:27:53;;;;;;;;;;;;;;;22.46;28.79;98045.41;5042642;28;1038;-82
2021/08/09 00:30:18;;;;;;;;;;;;;;;22.38;28.98;98044.03;5042372;28;834;-83
2021/08/09 00:32:44;;;;;;;;;;;;;;;22.41;28.87;98045.97;5058954;28;857;-83
2021/08/09 00:35:10;;;;;;;;;;;;;;;22.38;28.96;98044.03;5026120;28;1224;-83
2021/08/09 00:37:40;;;;;;;;;;;;;;;22.39;28.86;98043.59;5042436;28;1308;-82
2021/08/09 00:40:07;;;;;;;;;;;;;;;22.33;28.84;98037.69;5042019;28;1320;-83
2021/08/09 00:42:32;;;;;;;;;;;;;;;22.34;29.04;98047.00;5025912;28;1946;-83
2021/08/09 00:44:58;;;;;;;;;;;;;;;22.31;29.22;98043.00;5042134;28;903;-83
2021/08/09 00:47:23;;;;;;;;;;;;;;;22.35;28.84;98043.69;5043148;28;719;-82
2021/08/09 00:49:49;;;;;;;;;;;;;;;22.36;28.76;98042.44;5026315;28;1217;-83
2021/08/09 00:52:17;;;;;;;;;;;;;;;22.43;28.87;98040.63;5042321;28;1206;-82
2021/08/09 00:54:42;;;;;;;;;;;;;;;22.31;28.98;98040.16;5042468;28;1225;-83
2021/08/09 00:57:09;;;;;;;;;;;;;;;22.32;29.15;98036.06;5009584;28;1358;-82
2021/08/09 00:59:37;;;;;;;;;;;;;;;22.42;28.90;98033.38;5041856;28;1187;-83
2021/08/09 01:02:02;;;;;;;;;;;;;;;22.46;28.53;98039.75;5042053;28;1971;-82
2021/08/09 01:04:28;;;;;;;;;;;;;;;22.47;28.89;98032.81;5042112;28;710;-82
2021/08/09 01:06:55;;;;;;;;;;;;;;;22.48;28.71;98034.41;5026083;28;1202;-82
2021/08/09 01:09:29;;;;;;;;;;;;;;;22.53;28.71;98028.19;5042183;28;1225;-83
2021/08/09 01:12:13;;;;;;;;;;;;;;;22.45;28.97;98029.66;5041909;28;938;-82
2021/08/09 01:15:05;;;;;;;;;;;;;;;22.31;28.73;98020.31;5041708;28;1221;-83
2021/08/09 01:17:37;;;;;;;;;;;;;;;22.30;29.13;98020.78;5027931;28;1279;-83
2021/08/09 01:20:15;;;;;;;;;;;;;;;22.38;28.82;98021.34;5009620;28;1387;-83
2021/08/09 01:22:54;;;;;;;;;;;;;;;22.36;29.02;98019.75;5041798;28;1981;-83
2021/08/09 01:25:40;;;;;;;;;;;;;;;22.49;28.57;98021.84;5042008;28;1154;-82
2021/08/09 01:28:08;;;;;;;;;;;;;;;22.40;28.58;98018.88;5041389;28;1158;-83
2021/08/09 01:30:34;;;;;;;;;;;;;;;22.49;28.51;98016.19;5024801;28;1140;-83
2021/08/09 01:33:00;;;;;;;;;;;;;;;22.43;28.64;98012.28;5008726;28;1422;-83
2021/08/09 01:35:25;;;;;;;;;;;;;;;22.44;28.62;98017.53;5041469;28;802;-83
2021/08/09 01:37:55;;;;;;;;;;;;;;;22.49;28.75;98019.00;5025842;28;1206;-83
2021/08/09 01:40:23;;;;;;;;;;;;;;;22.39;29.02;98011.63;5025405;28;1171;-83
2021/08/09 01:42:48;;;;;;;;;;;;;;;22.24;29.08;98012.03;5040943;28;1898;-83
2021/08/09 01:45:16;;;;;;;;;;;;;;;22.35;28.58;98012.50;5025007;28;1151;-82
2021/08/09 01:47:42;;;;;;;;;;;;;;;22.41;28.63;98011.97;5024974;28;1272;-83
2021/08/09 01:50:09;;;;;;;;;;;;;;;22.38;28.63;98015.69;5041390;28;1302;-83
2021/08/09 01:52:34;;;;;;;;;;;;;;;22.34;28.74;98010.13;5024155;28;738;-83
2021/08/09 01:55:01;;;;;;;;;;;;;;;22.26;29.01;98003.06;5041249;28;1225;-83
2021/08/09 01:57:28;;;;;;;;;;;;;;;22.35;28.62;98012.50;5024714;28;1489;-82
2021/08/09 01:59:54;;;;;;;;;;;;;;;22.49;28.72;98010.50;5024012;28;954;-82
2021/08/09 02:02:30;;;;;;;;;;;;;;;22.32;28.91;98012.59;5024896;28;1894;-82
2021/08/09 02:05:10;;;;;;;;;;;;;;;22.40;28.61;98008.31;5024630;28;1155;-82
2021/08/09 02:07:45;;;;;;;;;;;;;;;22.50;28.50;98000.75;5057593;28;1367;-82
2021/08/09 02:10:12;;;;;;;;;;;;;;;22.49;28.59;97999.16;5024407;28;1311;-82
2021/08/09 02:12:40;;;;;;;;;;;;;;;22.41;28.54;97992.91;5057055;28;868;-83
2021/08/09 02:15:06;;;;;;;;;;;;;;;22.34;28.75;97998.78;5040630;28;1256;-83
2021/08/09 02:17:35;;;;;;;;;;;;;;;22.42;28.49;98007.88;5041288;28;970;-83
2021/08/09 02:20:03;;;;;;;;;;;;;;;22.39;28.48;98008.78;5023770;28;1158;-82
2021/08/09 02:22:33;;;;;;;;;;;;;;;22.42;28.75;97999.38;5040927;28;1913;-82
2021/08/09 02:25:10;;;;;;;;;;;;;;;22.40;28.41;98002.66;5024265;28;1358;-82
2021/08/09 02:27:45;;;;;;;;;;;;;;;22.33;28.58;97992.34;5040338;28;1178;-82
2021/08/09 02:30:12;;;;;;;;;;;;;;;22.33;28.80;97992.34;5023721;28;1222;-83
2021/08/09 02:32:38;;;;;;;;;;;;;;;22.48;28.54;97994.72;5024108;28;1313;-82
2021/08/09 02:35:04;;;;;;;;;;;;;;;22.34;28.52;97993.91;5024120;28;1294;-83
2021/08/09 02:37:30;;;;;;;;;;;;;;;22.34;28.49;97998.78;5057114;28;686;-82
2021/08/09 02:39:56;;;;;;;;;;;;;;;22.43;28.34;98000.94;5039778;28;914;-82
2021/08/09 02:42:21;;;;;;;;;;;;;;;22.36;28.36;98001.97;5040055;28;1969;-82
2021/08/09 02:44:47;;;;;;;;;;;;;;;22.34;28.43;98008.09;5023340;28;1209;-82
2021/08/09 02:47:13;;;;;;;;;;;;;;;22.26;28.64;98008.75;5024416;28;1279;-81
2021/08/09 02:49:41;;;;;;;;;;;;;;;22.32;28.55;98002.06;5023361;28;1120;-82
2021/08/09 02:52:06;;;;;;;;;;;;;;;22.40;28.43;98001.88;5024338;28;1412;-82
2021/08/09 02:54:32;;;;;;;;;;;;;;;22.33;28.67;98008.56;5023692;28;1326;-82
2021/08/09 02:56:57;;;;;;;;;;;;;;;22.33;28.45;98009.34;5039578;28;1083;-82
2021/08/09 02:59:23;;;;;;;;;;;;;;;22.30;28.82;98004.56;5039769;28;864;-83
2021/08/09 03:01:49;;;;;;;;;;;;;;;22.25;28.71;98004.31;5023697;28;1938;-82
2021/08/09 03:04:15;;;;;;;;;;;;;;;22.26;28.66;98003.88;5023422;28;1208;-82
2021/08/09 03:06:47;;;;;;;;;;;;;;;22.34;28.70;97998.78;5040225;28;1206;-82
2021/08/09 03:09:13;;;;;;;;;;;;;;;22.28;28.70;98006.28;5039903;28;1201;-83
2021/08/09 03:11:42;;;;;;;;;;;;;;;22.24;28.66;98009.19;5023361;28;1234;-83
2021/08/09 03:14:20;;;;;;;;;;;;;;;22.34;28.83;98010.94;5039677;28;1150;-82
2021/08/09 03:16:45;;;;;;;;;;;;;;;22.29;28.59;98002.97;5023047;28;1428;-83
2021/08/09 03:19:11;;;;;;;;;;;;;;;22.30;28.74;98004.56;5023513;28;1245;-82
2021/08/09 03:21:36;;;;;;;;;;;;;;;22.42;28.60;98007.88;5023455;28;1971;-82
2021/08/09 03:24:02;;;;;;;;;;;;;;;22.44;28.62;98008.22;5023449;28;1246;-83
2021/08/09 03:26:27;;;;;;;;;;;;;;;22.35;28.70;98006.06;5039646;28;1245;-82
2021/08/09 03:28:52;;;;;;;;;;;;;;;22.43;28.61;98017.97;5039658;28;1192;-82
2021/08/09 03:31:18;;;;;;;;;;;;;;;22.41;28.48;98012.75;5039230;28;867;-82
2021/08/09 03:33:44;;;;;;;;;;;;;;;22.33;28.51;98015.00;5022790;28;1340;-83
2021/08/09 03:36:09;;;;;;;;;;;;;;;22.34;28.40;98016.59;5022950;28;1238;-83
2021/08/09 03:38:35;;;;;;;;;;;;;;;22.39;28.35;98011.63;5039622;28;1260;-83
2021/08/09 03:41:01;;;;;;;;;;;;;;;22.40;28.38;98019.66;5040090;28;876;-82
2021/08/09 03:43:26;;;;;;;;;;;;;;;22.32;28.73;98024.75;5038755;28;1906;-82
2021/08/09 03:45:51;;;;;;;;;;;;;;;22.28;28.56;98021.22;5040241;28;843;-82
2021/08/09 03:48:17;;;;;;;;;;;;;;;22.24;28.66;98023.38;5039144;28;887;-83
2021/08/09 03:50:52;;;;;;;;;;;;;;;22.43;28.28;98020.78;5023485;28;1270;-82
2021/08/09 03:53:17;;;;;;;;;;;;;;;22.35;28.46;98023.84;5039587;28;1166;-82
2021/08/09 03:55:43;;;;;;;;;;;;;;;22.35;28.38;98029.53;5040188;28;1001;-82
2021/08/09 03:58:08;;;;;;;;;;;;;;;22.27;28.55;98033.00;5039068;28;1171;-83
2021/08/09 04:00:35;;;;;;;;;;;;;;;22.26;28.63;98037.09;5023684;28;1162;-82
2021/08/09 04:03:01;;;;;;;;;;;;;;;22.36;28.54;98035.97;5023162;28;1898;-82
2021/08/09 04:05:35;;;;;;;;;;;;;;;22.32;28.78;98041.75;5024408;28;1246;-83
2021/08/09 04:08:00;;;;;;;;;;;;;;;22.33;28.81;98039.72;5040305;28;598;-84
2021/08/09 04:10:26;;;;;;;;;;;;;;;22.36;28.59;98036.78;5040096;28;1353;-84
2021/08/09 04:12:55;;;;;;;;;;;;;;;22.34;28.75;98032.81;5040605;28;1189;-86
2021/08/09 04:15:20;;;;;;;;;;;;;;;22.40;28.45;98035.88;5025623;28;1201;-86
2021/08/09 04:17:46;;;;;;;;;;;;;;;22.36;28.49;98033.94;5029360;28;1331;-86
2021/08/09 04:20:12;;;;;;;;;;;;;;;22.39;28.51;98034.31;5028963;28;1179;-86
2021/08/09 04:22:38;;;;;;;;;;;;;;;22.38;28.73;98038.34;5044727;28;1906;-86
2021/08/09 04:25:07;;;;;;;;;;;;;;;22.34;28.59;98038.47;5028669;28;1252;-86
2021/08/09 04:27:33;;;;;;;;;;;;;;;22.35;28.87;98040.84;5029658;28;1219;-86
2021/08/09 04:29:59;;;;;;;;;;;;;;;22.40;28.74;98047.22;5044522;28;1174;-86
2021/08/09 04:32:24;;;;;;;;;;;;;;;22.31;28.72;98042.19;5044199;28;898;-86
2021/08/09 04:34:50;;;;;;;;;;;;;;;22.27;28.84;98044.34;5011959;28;1250;-86
2021/08/09 04:37:16;;;;;;;;;;;;;;;22.25;29.15;98036.28;5029155;28;1236;-85
2021/08/09 04:39:43;;;;;;;;;;;;;;;22.23;29.12;98033.13;5061168;28;1339;-86
2021/08/09 04:42:11;;;;;;;;;;;;;;;22.39;28.71;98039.97;5045531;28;1976;-85
2021/08/09 04:44:37;;;;;;;;;;;;;;;22.42;28.81;98030.56;5028481;28;1288;-85
2021/08/09 04:47:03;;;;;;;;;;;;;;;22.45;28.88;98038.16;5029028;28;1263;-86
2021/08/09 04:49:30;;;;;;;;;;;;;;;22.32;29.27;98036.06;5045234;28;1367;-85
2021/08/09 04:51:56;;;;;;;;;;;;;;;22.44;29.20;98042.25;5044638;28;1216;-86
2021/08/09 04:54:22;;;;;;;;;;;;;;;22.41;28.98;98043.13;5028236;28;1311;-86
2021/08/09 04:56:48;;;;;;;;;;;;;;;22.35;28.94;98040.06;5044946;28;1238;-86
2021/08/09 04:59:15;;;;;;;;;;;;;;;22.33;29.08;98040.53;5012255;28;1158;-85
2021/08/09 05:01:41;;;;;;;;;;;;;;;22.43;29.10;98041.44;5045031;28;1965;-86
2021/08/09 05:04:09;;;;;;;;;;;;;;;22.35;29.24;98052.19;5028953;28;1234;-85
2021/08/09 05:06:35;;;;;;;;;;;;;;;22.32;29.28;98060.78;5028128;28;1204;-86
2021/08/09 05:09:01;;;;;;;;;;;;;;;22.36;29.14;98050.94;5044102;28;1195;-86
2021/08/09 05:11:27;;;;;;;;;;;;;;;22.49;28.89;98047.38;5077108;28;877;-86
2021/08/09 05:13:59;;;;;;;;;;;;;;;22.48;29.25;98048.59;5044387;28;1202;-86
2021/08/09 05:16:26;;;;;;;;;;;;;;;22.42;29.13;98056.06;5044785;28;1191;-85
2021/08/09 05:18:53;;;;;;;;;;;;;;;22.41;29.54;98065.81;5044186;28;1191;-86
2021/08/09 05:21:18;;;;;;;;;;;;;;;22.34;29.54;98066.84;5044837;28;726;-86
2021/08/09 05:23:47;;;;;;;;;;;;;;;22.40;29.31;98064.25;5028129;28;1977;-86
2021/08/09 05:26:13;;;;;;;;;;;;;;;22.38;29.46;98067.50;5044111;28;1132;-85
2021/08/09 05:28:38;;;;;;;;;;;;;;;22.34;29.54;98067.63;5026664;28;1192;-86
2021/08/09 05:31:04;;;;;;;;;;;;;;;22.35;29.76;98069.22;5044486;28;975;-86
2021/08/09 05:33:30;;;;;;;;;;;;;;;22.39;29.76;98068.31;5027115;28;817;-86
2021/08/09 05:35:55;;;;;;;;;;;;;;;22.40;29.45;98069.91;5027680;28;1144;-86
2021/08/09 05:38:20;;;;;;;;;;;;;;;22.46;29.50;98068.09;5043603;28;866;-86
2021/08/09 05:40:46;;;;;;;;;;;;;;;22.37;29.71;98077.25;5028337;28;1175;-86
2021/08/09 05:43:12;;;;;;;;;;;;;;;22.42;29.72;98073.06;5027316;28;1965;-86
2021/08/09 05:45:38;;;;;;;;;;;;;;;22.40;29.62;98078.41;5043862;28;1085;-86
2021/08/09 05:48:25;;;;;;;;;;;;;;;22.39;29.62;98074.78;5043055;28;1264;-85
2021/08/09 05:50:53;;;;;;;;;;;;;;;22.44;29.73;98070.59;5061451;28;1249;-86
2021/08/09 05:53:18;;;;;;;;;;;;;;;22.40;29.66;98075.56;5042717;28;1256;-86
2021/08/09 05:55:44;;;;;;;;;;;;;;;22.42;29.61;98075.91;5027813;28;1207;-86
2021/08/09 05:58:11;;;;;;;;;;;;;;;22.47;29.68;98076.16;5042976;28;1167;-86
2021/08/09 06:00:47;;;;;;;;;;;;;;;22.39;29.89;98068.31;5043399;28;964;-86
2021/08/09 06:03:22;;;;;;;;;;;;;;;22.42;30.00;98073.06;5027254;28;1975;-86
2021/08/09 06:05:59;;;;;;;;;;;;;;;22.39;29.73;98074.00;5044186;28;1265;-86
2021/08/09 06:08:30;;;;;;;;;;;;;;;22.38;30.04;98066.72;5027460;28;1171;-86
2021/08/09 06:10:57;;;;;;;;;;;;;;;22.52;29.84;98061.41;5027682;28;1474;-85
2021/08/09 06:13:23;;;;;;;;;;;;;;;22.46;29.87;98073.78;5027019;28;1312;-86
2021/08/09 06:15:49;;;;;;;;;;;;;;;22.46;29.61;98076.63;5026983;28;1275;-86
2021/08/09 06:18:15;;;;;;;;;;;;;;;22.36;30.11;98070.78;5042459;28;1233;-86
2021/08/09 06:20:42;;;;;;;;;;;;;;;22.43;29.77;98074.66;5027127;28;1351;-86
2021/08/09 06:23:10;;;;;;;;;;;;;;;22.41;30.06;98077.16;5042864;28;1975;-86
2021/08/09 06:25:37;;;;;;;;;;;;;;;22.51;29.87;98076.06;5027565;28;956;-86
2021/08/09 06:28:02;;;;;;;;;;;;;;;22.52;29.71;98074.81;5042356;28;758;-86
2021/08/09 06:30:28;;;;;;;;;;;;;;;22.48;30.01;98071.28;5025521;28;1178;-86
2021/08/09 06:32:54;;;;;;;;;;;;;;;22.42;29.88;98075.91;5025962;28;1340;-85
2021/08/09 06:35:21;;;;;;;;;;;;;;;22.47;30.01;98075.38;5042646;28;1082;-86
2021/08/09 06:37:47;;;;;;;;;;;;;;;22.44;29.93;98076.28;5026363;28;1004;-85
2021/08/09 06:40:14;;;;;;;;;;;;;;;22.62;29.81;98079.38;5010254;28;1350;-86
2021/08/09 06:42:41;;;;;;;;;;;;;;;22.52;29.80;98071.97;5026651;28;1942;-86
2021/08/09 06:45:12;;;;;;;;;;;;;;;22.48;30.05;98082.63;5057817;28;1213;-86
2021/08/09 06:47:37;;;;;;;;;;;;;;;22.43;30.35;98074.66;5041877;28;1284;-85
2021/08/09 06:50:03;;;;;;;;;;;;;;;22.62;29.77;98076.53;5041638;28;1420;-86
2021/08/09 06:52:32;;;;;;;;;;;;;;;22.55;30.00;98073.91;5025819;28;1277;-86
2021/08/09 06:54:59;;;;;;;;;;;;;;;22.51;30.22;98084.56;5025134;28;1199;-86
2021/08/09 06:57:24;;;;;;;;;;;;;;;22.51;29.98;98076.06;5042555;28;1351;-86
2021/08/09 06:59:50;;;;;;;;;;;;;;;22.50;29.99;98068.81;5041634;28;1191;-86
2021/08/09 07:02:15;;;;;;;;;;;;;;;22.53;30.11;98070.72;5042869;28;1891;-86
2021/08/09 07:04:41;;;;;;;;;;;;;;;22.53;30.01;98073.56;5024434;28;1145;-86
2021/08/09 07:07:06;;;;;;;;;;;;;;;22.61;29.90;98075.75;5042654;28;1268;-86
2021/08/09 07:09:32;;;;;;;;;;;;;;;22.58;29.91;98081.50;5025564;28;1228;-85
2021/08/09 07:11:57;;;;;;;;;;;;;;;22.57;29.93;98082.75;5041919;28;853;-86
2021/08/09 07:14:24;;;;;;;;;;;;;;;22.56;30.03;98089.69;5025586;28;1329;-86
2021/08/09 07:16:50;;;;;;;;;;;;;;;22.52;30.12;98094.66;5042040;28;1313;-86
2021/08/09 07:19:16;;;;;;;;;;;;;;;22.49;30.38;98093.53;5041547;28;1147;-86
2021/08/09 07:21:42;;;;;;;;;;;;;;;22.66;30.16;98084.94;5025642;28;1906;-86
2021/08/09 07:24:07;;;;;;;;;;;;;;;22.53;30.25;98099.06;5041957;28;880;-86
2021/08/09 07:26:33;;;;;;;;;;;;;;;22.60;30.32;98104.56;5059625;28;1123;-86
2021/08/09 07:29:00;;;;;;;;;;;;;;;22.57;30.45;98085.59;5009315;28;1151;-86
2021/08/09 07:31:26;;;;;;;;;;;;;;;22.56;30.05;98095.34;5025136;28;1184;-85
2021/08/09 07:33:52;;;;;;;;;;;;;;;22.66;30.23;98094.25;5058095;28;1369;-86
2021/08/09 07:36:17;;;;;;;;;;;;;;;22.59;30.14;98094.47;5042082;28;978;-86
2021/08/09 07:38:43;;;;;;;;;;;;;;;22.52;30.29;98103.16;5024800;28;1514;-86
2021/08/09 07:41:09;;;;;;;;;;;;;;;22.65;30.29;98092.66;5026289;28;1193;-86
2021/08/09 07:43:35;;;;;;;;;;;;;;;22.64;30.00;98102.44;5024927;28;1878;-85
2021/08/09 07:46:02;;;;;;;;;;;;;;;22.54;30.29;98097.84;5041007;28;1190;-85
2021/08/09 07:48:27;;;;;;;;;;;;;;;22.47;30.54;98098.03;5024958;28;1139;-85
2021/08/09 07:50:53;;;;;;;;;;;;;;;22.51;30.32;98104.41;5026855;28;1169;-85
2021/08/09 07:53:19;;;;;;;;;;;;;;;22.59;30.17;98111.47;5028251;28;1303;-85
2021/08/09 07:55:44;;;;;;;;;;;;;;;22.63;30.31;98095.13;5029763;28;1158;-86
2021/08/09 07:58:10;;;;;;;;;;;;;;;22.66;30.01;98102.75;5061227;28;1258;-85
2021/08/09 08:00:36;;;;;;;;;;;;;;;22.59;30.46;98100.13;5028232;28;1145;-86
2021/08/09 08:03:02;;;;;;;;;;;;;;;22.62;30.27;98108.53;5045007;28;1902;-85
2021/08/09 08:05:28;;;;;;;;;;;;;;;22.61;30.20;98103.31;5028805;28;1295;-86
2021/08/09 08:07:54;;;;;;;;;;;;;;;22.66;30.36;98105.59;5028852;28;1187;-85
2021/08/09 08:10:21;;;;;;;;;;;;;;;22.70;30.33;98100.63;5028942;28;1368;-84
2021/08/09 08:12:47;;;;;;;;;;;;;;;22.63;30.42;98101.59;5028583;28;1170;-85
2021/08/09 08:15:15;;;;;;;;;;;;;;;22.61;30.29;98106.16;5028366;28;1357;-84
2021/08/09 08:17:42;;;;;;;;;;;;;;;22.65;30.21;98098.34;5027688;28;1300;-84
2021/08/09 08:20:07;;;;;;;;;;;;;;;22.76;30.19;98103.69;5026900;28;1318;-84
2021/08/09 08:22:35;;;;;;;;;;;;;;;22.65;30.39;98112.50;5027872;28;1972;-85
2021/08/09 08:25:01;;;;;;;;;;;;;;;22.64;30.53;98108.09;5027995;28;1186;-85
2021/08/09 08:27:27;;;;;;;;;;;;;;;22.64;30.59;98093.91;5044600;28;918;-85
2021/08/09 08:29:53;;;;;;;;;;;;;;;22.69;30.31;98104.72;5028079;28;1391;-85
2021/08/09 08:32:19;;;;;;;;;;;;;;;22.66;30.27;98105.59;5027144;28;1153;-86
2021/08/09 08:34:45;;;;;;;;;;;;;;;22.63;30.57;98095.13;5028038;28;1261;-85
2021/08/09 08:37:11;;;;;;;;;;;;;;;22.56;30.47;98098.19;5027960;28;1278;-85
2021/08/09 08:39:37;;;;;;;;;;;;;;;22.50;30.67;98097.16;5027656;28;1260;-85
2021/08/09 08:42:02;;;;;;;;;;;;;;;22.63;30.34;98103.66;5044253;28;1959;-86
2021/08/09 08:44:29;;;;;;;;;;;;;;;22.66;30.49;98099.91;5027266;28;1184;-85
2021/08/09 08:46:56;;;;;;;;;;;;;;;22.74;30.31;98095.63;5044067;28;865;-85
2021/08/09 08:49:23;;;;;;;;;;;;;;;22.75;30.30;98105.72;5060185;28;1306;-85
2021/08/09 08:51:51;;;;;;;;;;;;;;;22.69;30.70;98101.88;5044903;28;1192;-85
2021/08/09 08:54:20;;;;;;;;;;;;;;;22.62;30.67;98107.72;5027792;28;1410;-85
2021/08/09 08:56:46;;;;;;;;;;;;;;;22.65;30.56;98106.06;5043854;28;1407;-85
2021/08/09 08:59:13;;;;;;;;;;;;;;;22.79;30.31;98097.09;5042896;28;980;-86
2021/08/09 09:01:39;;;;;;;;;;;;;;;22.81;30.47;98101.09;5044176;28;833;-85
2021/08/09 09:04:24;;;;;;;;;;;;;;;22.67;30.58;98106.38;5043443;28;1902;-85
2021/08/09 09:06:56;;;;;;;;;;;;;;;22.75;30.44;98094.38;5044168;28;687;-85
2021/08/09 09:09:22;;;;;;;;;;;;;;;22.68;30.58;98091.75;5043601;28;718;-85
2021/08/09 09:11:48;;;;;;;;;;;;;;;22.72;30.76;98098.13;5043954;28;615;-85
2021/08/09 09:14:13;;;;;;;;;;;;;;;22.70;30.87;98100.63;5043561;28;1314;-85
2021/08/09 09:16:45;;;;;;;;;;;;;;;22.76;30.37;98092.34;5043822;28;861;-85
2021/08/09 09:19:12;;;;;;;;;;;;;;;22.71;30.53;98105.03;5043208;28;1199;-85
2021/08/09 09:21:38;;;;;;;;;;;;;;;22.69;30.87;98099.03;5043656;28;1428;-85
2021/08/09 09:24:19;;;;;;;;;;;;;;;22.65;30.58;98098.34;5043039;28;1902;-85
2021/08/09 09:27:08;;;;;;;;;;;;;;;22.59;30.70;98105.81;5026394;28;1349;-85
2021/08/09 09:29:35;;;;;;;;;;;;;;;22.72;30.57;98108.66;5042637;28;888;-85
2021/08/09 09:32:11;;;;;;;;;;;;;;;22.74;30.46;98098.47;5042898;28;844;-85
2021/08/09 09:34:41;;;;;;;;;;;;;;;22.67;30.72;98115.69;5026950;28;1358;-84
2021/08/09 09:37:06;;;;;;;;;;;;;;;22.67;30.66;98101.50;5043520;28;1151;-85
2021/08/09 09:39:38;;;;;;;;;;;;;;;22.74;30.75;98106.16;5042902;28;619;-85
2021/08/09 09:42:08;;;;;;;;;;;;;;;22.55;30.90;98107.94;5026815;28;1926;-85
2021/08/09 09:44:34;;;;;;;;;;;;;;;22.58;30.77;98105.00;5042428;28;928;-85
2021/08/09 09:47:19;;;;;;;;;;;;;;;22.64;30.59;98108.09;5026319;28;1186;-85
2021/08/09 09:49:44;;;;;;;;;;;;;;;22.68;30.47;98107.97;5043355;28;686;-85
2021/08/09 09:52:27;;;;;;;;;;;;;;;22.68;30.65;98103.09;5042738;28;801;-86
2021/08/09 09:54:52;;;;;;;;;;;;;;;22.72;30.60;98103.78;5042780;28;1249;-85
2021/08/09 09:57:17;;;;;;;;;;;;;;;22.89;30.23;98098.84;5042773;28;661;-85
2021/08/09 09:59:43;;;;;;;;;;;;;;;22.88;30.43;98106.56;5041807;28;767;-85
2021/08/09 10:02:08;;;;;;;;;;;;;;;22.74;30.62;98095.63;5058956;28;1894;-85
2021/08/09 10:04:34;;;;;;;;;;;;;;;22.86;30.47;98097.69;5042623;28;1171;-85
2021/08/09 10:06:59;;;;;;;;;;;;;;;22.69;30.65;98096.19;5041886;28;944;-85
2021/08/09 10:09:25;;;;;;;;;;;;;;;22.86;30.32;98103.38;5041951;28;1278;-85
2021/08/09 10:11:50;;;;;;;;;;;;;;;22.78;30.75;98101.19;5040054;28;1333;-85
2021/08/09 10:14:16;;;;;;;;;;;;;;;22.65;30.86;98097.53;5020958;28;681;-85
2021/08/09 10:16:41;;;;;;;;;;;;;;;22.77;30.55;98094.72;5022012;28;778;-84
2021/08/09 10:19:08;;;;;;;;;;;;;;;22.79;30.69;98086.53;5005169;28;1463;-85
2021/08/09 10:21:33;;;;;;;;;;;;;;;22.71;30.84;98093.69;5022588;28;1006;-85
2021/08/09 10:23:59;;;;;;;;;;;;;;;22.70;30.70;98097.78;5022269;28;1930;-85
2021/08/09 10:26:31;;;;;;;;;;;;;;;22.75;30.78;98087.94;5006687;28;619;-85
2021/08/09 10:29:00;;;;;;;;;;;;;;;22.71;30.70;98090.84;5022063;28;995;-85
2021/08/09 10:31:29;;;;;;;;;;;;;;;22.70;30.70;98089.28;5022116;28;788;-84
2021/08/09 10:33:55;;;;;;;;;;;;;;;22.75;30.62;98096.44;5021600;28;991;-85
2021/08/09 10:36:21;;;;;;;;;;;;;;;22.73;30.89;98091.19;5022177;28;1250;-84
2021/08/09 10:38:47;;;;;;;;;;;;;;;22.70;30.80;98094.16;5037578;28;1497;-85
2021/08/09 10:41:16;;;;;;;;;;;;;;;22.64;30.77;98102.44;5022181;28;869;-85
2021/08/09 10:44:04;;;;;;;;;;;;;;;22.53;31.20;98093.41;5021743;28;1961;-85
2021/08/09 10:46:33;;;;;;;;;;;;;;;22.67;30.80;98086.53;5019454;28;949;-85
2021/08/09 10:48:58;;;;;;;;;;;;;;;22.69;30.92;98082.00;5020509;28;870;-85
2021/08/09 10:51:44;;;;;;;;;;;;;;;22.75;30.70;98087.94;5037570;28;1283;-85
2021/08/09 10:54:28;;;;;;;;;;;;;;;22.71;30.57;98084.38;5020470;28;1073;-85
2021/08/09 10:56:55;;;;;;;;;;;;;;;22.58;30.90;98075.84;5038589;28;1514;-85
2021/08/09 10:59:39;;;;;;;;;;;;;;;22.73;30.89;98077.00;5021459;28;851;-83
2021/08/09 11:02:05;;;;;;;;;;;;;;;22.75;30.58;98079.41;5055304;28;1981;-85
2021/08/09 11:04:31;;;;;;;;;;;;;;;22.81;30.82;98075.56;5037866;28;1246;-85
2021/08/09 11:06:56;;;;;;;;;;;;;;;22.84;30.46;98077.47;5022319;28;884;-85
2021/08/09 11:09:28;;;;;;;;;;;;;;;22.65;30.95;98074.84;5021756;28;1169;-86
2021/08/09 11:12:06;;;;;;;;;;;;;;;22.68;30.82;98083.22;5022237;28;776;-85
2021/08/09 11:14:31;;;;;;;;;;;;;;;22.67;30.96;98078.81;5022643;28;643;-85
2021/08/09 11:16:59;;;;;;;;;;;;;;;22.69;30.84;98076.34;5006051;28;1158;-85
2021/08/09 11:19:24;;;;;;;;;;;;;;;22.69;31.05;98076.34;5021327;28;968;-84
2021/08/09 11:21:50;;;;;;;;;;;;;;;22.74;31.02;98077.81;5021962;28;1977;-84
2021/08/09 11:24:29;;;;;;;;;;;;;;;22.72;30.98;98081.09;5022085;28;901;-85
2021/08/09 11:27:02;;;;;;;;;;;;;;;22.65;31.03;98075.66;5028780;28;911;-85
2021/08/09 11:29:28;;;;;;;;;;;;;;;22.75;30.84;98068.06;5045031;28;1293;-85
2021/08/09 11:31:53;;;;;;;;;;;;;;;22.80;30.53;98071.13;5029519;28;742;-85
2021/08/09 11:34:19;;;;;;;;;;;;;;;22.83;30.67;98077.94;5044968;28;1165;-85
2021/08/09 11:36:44;;;;;;;;;;;;;;;22.70;30.94;98066.59;5044432;28;1292;-86
2021/08/09 11:39:10;;;;;;;;;;;;;;;22.67;31.06;98066.69;5044024;28;1281;-85
2021/08/09 11:41:35;;;;;;;;;;;;;;;22.68;31.21;98069.06;5044426;28;1223;-85
2021/08/09 11:44:10;;;;;;;;;;;;;;;22.67;30.93;98067.47;5027833;28;1906;-85
2021/08/09 11:46:45;;;;;;;;;;;;;;;22.75;31.12;98070.91;5061898;28;1108;-85
2021/08/09 11:49:10;;;;;;;;;;;;;;;22.81;30.52;98067.03;5011353;28;1500;-85
2021/08/09 11:51:36;;;;;;;;;;;;;;;22.62;31.24;98065.19;5011631;28;900;-85
2021/08/09 11:54:03;;;;;;;;;;;;;;;22.66;31.17;98065.88;5011995;28;1319;-85
2021/08/09 11:56:35;;;;;;;;;;;;;;;22.70;31.03;98063.75;5011897;28;1182;-85
2021/08/09 11:59:10;;;;;;;;;;;;;;;22.69;30.84;98065.00;5027827;28;607;-86
2021/08/09 12:01:39;;;;;;;;;;;;;;;22.73;31.05;98060.00;5028219;28;889;-85
2021/08/09 12:04:09;;;;;;;;;;;;;;;22.76;30.98;98064.78;5027229;28;1969;-86
2021/08/09 12:06:46;;;;;;;;;;;;;;;22.83;30.85;98058.06;5011418;28;957;-85
2021/08/09 12:09:13;;;;;;;;;;;;;;;22.74;30.80;98055.94;5028633;28;619;-85
2021/08/09 12:11:38;;;;;;;;;;;;;;;22.76;31.02;98059.09;5028200;28;841;-85
2021/08/09 12:14:08;;;;;;;;;;;;;;;22.68;31.02;98054.88;5012180;28;1275;-85
2021/08/09 12:16:45;;;;;;;;;;;;;;;22.72;30.73;98052.72;5028067;28;735;-85
2021/08/09 12:19:15;;;;;;;;;;;;;;;22.67;31.07;98056.13;5027252;28;1096;-86
2021/08/09 12:21:41;;;;;;;;;;;;;;;22.72;31.04;98035.72;5028211;28;913;-85
2021/08/09 12:24:13;;;;;;;;;;;;;;;22.77;30.77;98049.34;5011753;28;1906;-85
2021/08/09 12:26:38;;;;;;;;;;;;;;;22.81;30.74;98038.69;5028137;28;619;-86
2021/08/09 12:29:07;;;;;;;;;;;;;;;22.79;30.76;98041.16;5028041;28;801;-86
2021/08/09 12:31:32;;;;;;;;;;;;;;;22.81;30.71;98044.34;5027816;28;663;-85
2021/08/09 12:33:59;;;;;;;;;;;;;;;22.83;30.82;98039.00;5027002;28;1061;-85
2021/08/09 12:36:24;;;;;;;;;;;;;;;22.92;30.64;98048.94;5025645;28;835;-85
2021/08/09 12:38:50;;;;;;;;;;;;;;;22.91;30.59;98047.34;5008200;28;1127;-86
2021/08/09 12:41:23;;;;;;;;;;;;;;;22.83;30.83;98047.53;5024958;28;910;-86
2021/08/09 12:43:48;;;;;;;;;;;;;;;22.81;30.76;98044.34;5024295;28;1971;-86
2021/08/09 12:46:14;;;;;;;;;;;;;;;22.69;30.74;98042.31;5025134;28;944;-86
2021/08/09 12:48:45;;;;;;;;;;;;;;;22.81;30.52;98050.03;5007681;28;1178;-86
2021/08/09 12:51:10;;;;;;;;;;;;;;;22.65;30.75;98041.63;5024677;28;996;-85
2021/08/09 12:53:35;;;;;;;;;;;;;;;22.65;31.07;98052.97;5008075;28;1151;-86
2021/08/09 12:56:01;;;;;;;;;;;;;;;22.75;30.70;98043.34;5008516;28;1330;-86
2021/08/09 12:58:27;;;;;;;;;;;;;;;22.74;30.84;98043.75;5008217;28;1178;-86
2021/08/09 13:00:52;;;;;;;;;;;;;;;22.66;31.01;98043.19;5008133;28;902;-86
2021/08/09 13:03:18;;;;;;;;;;;;;;;22.75;30.83;98036.88;5024489;28;1875;-86